createdAt,value
2022-11-17T00:00:42.856Z,13.50
2022-11-17T00:03:14.179Z,8.93
2022-11-17T00:05:42.344Z,14.80
2022-11-17T00:08:10.466Z,13.53
2022-11-17T00:10:38.588Z,10.23
2022-11-17T00:13:24.314Z,12.10
2022-11-17T00:15:53.991Z,13.40
2022-11-17T00:18:39.746Z,11.50
2022-11-17T00:21:21.427Z,11.80
2022-11-17T00:23:50.391Z,11.17
2022-11-17T00:26:20.568Z,12.30
2022-11-17T00:28:48.793Z,13.10
2022-11-17T00:31:36.076Z,12.77
2022-11-17T00:34:07.651Z,15.50
2022-11-17T00:36:39.349Z,13.43
2022-11-17T00:39:08.598Z,13.30
2022-11-17T00:41:36.765Z,10.17
2022-11-17T00:44:05.623Z,12.00
2022-11-17T00:46:37.098Z,9.33
2022-11-17T00:49:06.381Z,13.00
2022-11-17T00:51:35.086Z,15.30
2022-11-17T00:54:03.935Z,11.80
2022-11-17T00:56:32.526Z,9.83
2022-11-17T00:59:00.956Z,12.43
2022-11-17T01:01:30.614Z,9.73
2022-11-17T01:04:04.130Z,12.60
2022-11-17T01:06:33.897Z,12.13
2022-11-17T01:09:02.548Z,9.63
2022-11-17T01:11:30.852Z,10.20
2022-11-17T01:14:00.993Z,10.60
2022-11-17T01:16:31.134Z,9.60
2022-11-17T01:19:02.802Z,9.27
2022-11-17T01:21:32.104Z,8.80
2022-11-17T01:24:01.906Z,10.67
2022-11-17T01:26:32.124Z,9.43
2022-11-17T01:29:01.027Z,12.30
2022-11-17T01:31:31.188Z,12.60
2022-11-17T01:34:02.103Z,8.93
2022-11-17T01:36:52.277Z,8.57
2022-11-17T01:39:20.870Z,9.63
2022-11-17T01:41:49.003Z,10.93
2022-11-17T01:44:56.974Z,10.37
2022-11-17T01:47:32.258Z,9.70
2022-11-17T01:50:07.513Z,8.07
2022-11-17T01:52:38.488Z,9.70
2022-11-17T01:55:08.885Z,9.87
2022-11-17T01:57:41.353Z,10.53
2022-11-17T02:00:11.233Z,10.57
2022-11-17T02:02:42.051Z,9.00
2022-11-17T02:05:21.724Z,9.60
2022-11-17T02:07:59.678Z,10.87
2022-11-17T02:10:31.351Z,7.90
2022-11-17T02:13:01.106Z,8.70
2022-11-17T02:15:30.110Z,10.00
2022-11-17T02:18:00.205Z,9.00
2022-11-17T02:20:46.768Z,13.30
2022-11-17T02:23:46.947Z,7.87
2022-11-17T02:26:50.232Z,8.20
2022-11-17T02:29:26.179Z,9.30
2022-11-17T02:32:00.560Z,9.00
2022-11-17T02:34:37.736Z,9.37
2022-11-17T02:37:17.617Z,8.23
2022-11-17T02:39:55.014Z,10.27
2022-11-17T02:42:49.809Z,11.83
2022-11-17T02:45:22.605Z,9.90
2022-11-17T02:47:54.373Z,7.50
2022-11-17T02:50:28.473Z,9.40
2022-11-17T02:52:57.517Z,9.33
2022-11-17T02:55:27.630Z,12.00
2022-11-17T02:57:55.771Z,9.33
2022-11-17T03:00:25.463Z,9.10
2022-11-17T03:03:12.561Z,12.57
2022-11-17T03:05:51.562Z,10.30
2022-11-17T03:08:32.603Z,10.20
2022-11-17T03:11:03.701Z,10.33
2022-11-17T03:13:40.939Z,11.20
2022-11-17T03:16:22.696Z,10.73
2022-11-17T03:19:02.192Z,10.93
2022-11-17T03:21:35.596Z,8.90
2022-11-17T03:24:08.814Z,9.87
2022-11-17T03:26:41.099Z,11.37
2022-11-17T03:29:14.067Z,11.70
2022-11-17T03:31:46.399Z,10.23
2022-11-17T03:34:19.057Z,11.87
2022-11-17T03:36:52.957Z,11.10
2022-11-17T03:39:24.640Z,10.03
2022-11-17T03:41:58.336Z,11.97
2022-11-17T03:44:30.948Z,11.50
2022-11-17T03:47:02.798Z,12.03
2022-11-17T03:49:37.547Z,13.37
2022-11-17T03:52:05.886Z,10.80
2022-11-17T03:54:34.571Z,11.03
2022-11-17T03:57:08.050Z,11.03
2022-11-17T03:59:44.091Z,11.00
2022-11-17T04:02:18.559Z,10.13
2022-11-17T04:05:04.766Z,9.90
2022-11-17T04:07:33.046Z,13.07
2022-11-17T04:10:01.307Z,9.30
2022-11-17T04:12:47.092Z,13.03
2022-11-17T04:15:33.234Z,9.93
2022-11-17T04:18:02.939Z,11.27
2022-11-17T04:20:36.207Z,15.60
2022-11-17T04:23:11.437Z,10.30
2022-11-17T04:25:59.314Z,14.17
2022-11-17T04:28:38.127Z,10.70
2022-11-17T04:31:08.520Z,13.23
2022-11-17T04:33:39.431Z,14.60
2022-11-17T04:36:08.199Z,12.20
2022-11-17T04:38:36.582Z,13.37
2022-11-17T04:41:24.443Z,11.53
2022-11-17T04:43:53.687Z,11.40
2022-11-17T04:46:23.669Z,11.00
2022-11-17T04:48:54.184Z,11.53
2022-11-17T04:51:23.336Z,12.30
2022-11-17T04:53:51.661Z,13.33
2022-11-17T04:56:20.470Z,13.77
2022-11-17T04:58:49.246Z,11.30
2022-11-17T05:01:18.809Z,14.43
2022-11-17T05:03:48.567Z,12.80
2022-11-17T05:06:20.429Z,12.90
2022-11-17T05:08:49.431Z,11.70
2022-11-17T05:11:36.551Z,14.80
2022-11-17T05:14:04.674Z,13.80
2022-11-17T05:16:50.527Z,12.57
2022-11-17T05:19:20.483Z,12.60
2022-11-17T05:21:50.670Z,13.47
2022-11-17T05:24:18.311Z,15.30
2022-11-17T05:26:48.591Z,17.17
2022-11-17T05:29:18.660Z,15.77
2022-11-17T05:31:47.023Z,18.03
2022-11-17T05:34:17.377Z,13.40
2022-11-17T05:36:46.944Z,14.60
2022-11-17T05:39:16.440Z,13.67
2022-11-17T05:41:44.566Z,14.70
2022-11-17T05:44:12.674Z,13.10
2022-11-17T05:46:40.804Z,14.57
2022-11-17T05:49:08.967Z,12.90
2022-11-17T05:51:38.335Z,14.33
2022-11-17T05:54:06.591Z,15.63
2022-11-17T05:56:40.089Z,16.83
2022-11-17T05:59:24.720Z,14.77
2022-11-17T06:02:00.872Z,16.50
2022-11-17T06:04:29.916Z,13.00
2022-11-17T06:06:59.565Z,13.50
2022-11-17T06:09:29.621Z,15.07
2022-11-17T06:12:05.295Z,15.47
2022-11-17T06:14:34.416Z,16.83
2022-11-17T06:17:05.748Z,13.90
2022-11-17T06:19:37.520Z,14.63
2022-11-17T06:22:14.020Z,13.80
2022-11-17T06:24:44.033Z,14.10
2022-11-17T06:27:16.357Z,16.00
2022-11-17T06:29:45.353Z,12.07
2022-11-17T06:32:14.892Z,15.60
2022-11-17T06:34:43.896Z,14.00
2022-11-17T06:37:12.296Z,14.83
2022-11-17T06:39:40.453Z,12.80
2022-11-17T06:42:08.606Z,12.63
2022-11-17T06:44:38.053Z,14.53
2022-11-17T06:47:06.838Z,11.23
2022-11-17T06:49:35.000Z,12.43
2022-11-17T06:52:03.132Z,16.13
2022-11-17T06:54:31.258Z,15.13
2022-11-17T06:56:59.375Z,12.23
2022-11-17T06:59:27.499Z,14.27
2022-11-17T07:01:56.961Z,15.70
2022-11-17T07:04:25.095Z,14.10
2022-11-17T07:06:53.233Z,12.50
2022-11-17T07:09:21.392Z,12.37
2022-11-17T07:11:49.510Z,14.87
2022-11-17T07:14:17.653Z,13.80
2022-11-17T07:16:45.778Z,13.50
2022-11-17T07:19:15.295Z,16.43
2022-11-17T07:21:43.449Z,16.67
2022-11-17T07:24:11.993Z,14.23
2022-11-17T07:26:40.203Z,14.70
2022-11-17T07:29:08.328Z,15.00
2022-11-17T07:31:36.728Z,14.20
2022-11-17T07:34:04.904Z,12.50
2022-11-17T07:36:34.764Z,16.73
2022-11-17T07:39:02.953Z,15.43
2022-11-17T07:41:31.984Z,20.93
2022-11-17T07:44:00.281Z,17.50
2022-11-17T07:46:28.431Z,15.70
2022-11-17T07:48:56.803Z,17.70
2022-11-17T07:51:25.033Z,15.37
2022-11-17T07:53:54.713Z,15.27
2022-11-17T07:56:22.832Z,14.77
2022-11-17T07:58:50.952Z,13.87
2022-11-17T08:01:19.469Z,15.60
2022-11-17T08:03:47.984Z,14.90
2022-11-17T08:06:16.902Z,17.33
2022-11-17T08:08:45.060Z,15.23
2022-11-17T08:11:14.511Z,15.40
2022-11-17T08:13:43.021Z,14.93
2022-11-17T08:16:12.310Z,15.13
2022-11-17T08:18:41.085Z,15.20
2022-11-17T08:21:11.607Z,12.13
2022-11-17T08:23:39.752Z,14.87
2022-11-17T08:26:10.518Z,16.00
2022-11-17T08:28:40.407Z,14.30
2022-11-17T08:31:09.077Z,12.60
2022-11-17T08:33:37.469Z,10.87
2022-11-17T08:36:07.081Z,15.03
2022-11-17T08:38:36.141Z,13.77
2022-11-17T08:41:06.864Z,14.17
2022-11-17T08:43:35.562Z,13.40
2022-11-17T08:46:05.500Z,14.37
2022-11-17T08:48:34.024Z,13.77
2022-11-17T08:51:06.397Z,18.50
2022-11-17T08:53:34.544Z,13.87
2022-11-17T08:56:02.667Z,12.33
2022-11-17T08:58:30.811Z,10.73
2022-11-17T09:01:04.971Z,15.43
2022-11-17T09:03:34.888Z,12.73
2022-11-17T09:06:04.671Z,14.37
2022-11-17T09:08:48.292Z,13.13
2022-11-17T09:11:17.157Z,12.50
2022-11-17T09:13:46.826Z,12.57
2022-11-17T09:16:16.876Z,12.07
2022-11-17T09:18:46.400Z,10.10
2022-11-17T09:21:16.419Z,13.87
2022-11-17T09:23:44.918Z,12.83
2022-11-17T09:26:14.702Z,13.63
2022-11-17T09:28:43.962Z,12.60
2022-11-17T09:31:14.006Z,13.50
2022-11-17T09:33:42.717Z,10.77
2022-11-17T09:36:13.534Z,13.53
2022-11-17T09:38:42.327Z,10.37
2022-11-17T09:41:21.008Z,12.87
2022-11-17T09:43:55.279Z,10.67
2022-11-17T09:46:29.423Z,14.70
2022-11-17T09:49:08.922Z,11.10
2022-11-17T09:51:42.049Z,11.40
2022-11-17T09:54:19.463Z,10.80
2022-11-17T09:56:48.809Z,10.10
2022-11-17T09:59:20.807Z,8.60
2022-11-17T10:01:49.054Z,10.30
2022-11-17T10:04:18.536Z,11.03
2022-11-17T10:06:51.325Z,10.50
2022-11-17T10:09:29.401Z,9.87
2022-11-17T10:12:08.700Z,9.63
2022-11-17T10:14:41.007Z,12.50
2022-11-17T10:17:10.603Z,12.40
2022-11-17T10:19:39.849Z,9.20
2022-11-17T10:22:21.164Z,12.00
2022-11-17T10:24:52.109Z,8.60
2022-11-17T10:27:23.827Z,11.93
2022-11-17T10:30:02.815Z,12.13
2022-11-17T10:32:33.805Z,10.40
2022-11-17T10:35:15.960Z,9.93
2022-11-17T10:37:55.398Z,9.90
2022-11-17T10:40:26.173Z,11.17
2022-11-17T10:43:17.719Z,12.07
2022-11-17T10:45:46.439Z,10.00
2022-11-17T10:48:25.091Z,11.40
2022-11-17T10:50:56.058Z,8.50
2022-11-17T10:53:29.459Z,12.50
2022-11-17T10:56:02.653Z,10.83
2022-11-17T10:58:32.546Z,8.87
2022-11-17T11:01:03.609Z,9.83
2022-11-17T11:03:34.073Z,9.80
2022-11-17T11:06:05.734Z,12.20
2022-11-17T11:08:46.899Z,15.30
2022-11-17T11:11:25.154Z,9.37
2022-11-17T11:13:56.887Z,9.50
2022-11-17T11:16:27.211Z,9.60
2022-11-17T11:18:55.530Z,12.57
2022-11-17T11:21:37.732Z,8.80
2022-11-17T11:24:19.572Z,9.73
2022-11-17T11:26:57.771Z,10.13
2022-11-17T11:29:34.659Z,9.40
2022-11-17T11:32:21.170Z,10.83
2022-11-17T11:35:04.906Z,9.60
2022-11-17T11:37:39.083Z,10.87
2022-11-17T11:40:15.970Z,12.47
2022-11-17T11:42:53.216Z,10.30
2022-11-17T11:45:25.303Z,11.03
2022-11-17T11:48:11.502Z,10.90
2022-11-17T11:50:49.483Z,11.77
2022-11-17T11:53:24.545Z,13.90
2022-11-17T11:56:05.555Z,10.67
2022-11-17T11:58:33.618Z,11.07
2022-11-17T12:01:05.584Z,9.83
2022-11-17T12:03:37.439Z,11.80
2022-11-17T12:06:31.792Z,11.03
2022-11-17T12:09:11.626Z,9.43
2022-11-17T12:11:59.647Z,9.90
2022-11-17T12:14:29.249Z,11.10
2022-11-17T12:17:06.165Z,10.47
2022-11-17T12:19:51.114Z,11.70
2022-11-17T12:22:43.375Z,14.97
2022-11-17T12:25:20.111Z,13.47
2022-11-17T12:27:52.375Z,11.43
2022-11-17T12:30:53.856Z,13.97
2022-11-17T12:33:22.767Z,9.33
2022-11-17T12:36:30.557Z,11.83
2022-11-17T12:39:01.056Z,10.43
2022-11-17T12:42:07.402Z,13.53
2022-11-17T12:44:58.021Z,13.07
2022-11-17T12:47:28.215Z,12.27
2022-11-17T12:50:21.079Z,13.67
2022-11-17T12:53:00.825Z,12.60
2022-11-17T12:55:48.456Z,10.97
2022-11-17T12:58:27.175Z,11.67
2022-11-17T13:01:10.801Z,11.03
2022-11-17T13:03:48.334Z,12.50
2022-11-17T13:06:34.787Z,9.67
2022-11-17T13:09:07.232Z,11.57
2022-11-17T13:11:36.236Z,12.40
2022-11-17T13:14:09.540Z,11.17
2022-11-17T13:16:45.155Z,14.00
2022-11-17T13:19:35.113Z,11.63
2022-11-17T13:22:05.679Z,14.77
2022-11-17T13:24:36.611Z,13.03
2022-11-17T13:27:08.027Z,13.90
2022-11-17T13:29:36.629Z,14.10
2022-11-17T13:32:17.981Z,14.27
2022-11-17T13:34:48.440Z,13.30
2022-11-17T13:37:19.028Z,12.70
2022-11-17T13:40:01.855Z,12.70
2022-11-17T13:42:34.269Z,13.20
2022-11-17T13:45:05.945Z,17.10
2022-11-17T13:47:46.863Z,15.63
2022-11-17T13:50:33.736Z,14.23
2022-11-17T13:53:05.358Z,14.00
2022-11-17T13:55:34.595Z,12.70
2022-11-17T13:58:06.067Z,16.67
2022-11-17T14:00:35.048Z,16.80
2022-11-17T14:03:06.993Z,14.90
2022-11-17T14:05:35.401Z,14.93
2022-11-17T14:08:14.268Z,17.17
2022-11-17T14:10:42.683Z,16.70
2022-11-17T14:13:25.716Z,13.23
2022-11-17T14:15:59.863Z,16.67
2022-11-17T14:18:32.916Z,17.00
2022-11-17T14:21:22.321Z,16.57
2022-11-17T14:23:50.729Z,15.67
2022-11-17T14:26:21.675Z,17.73
2022-11-17T14:28:51.202Z,19.63
2022-11-17T14:31:19.792Z,20.50
2022-11-17T14:33:50.861Z,14.50
2022-11-17T14:36:19.285Z,14.33
2022-11-17T14:38:48.039Z,20.40
2022-11-17T14:41:17.488Z,17.80
2022-11-17T14:43:45.727Z,17.70
2022-11-17T14:46:26.520Z,17.43
2022-11-17T14:48:56.372Z,18.17
2022-11-17T14:51:25.405Z,15.60
2022-11-17T14:53:54.184Z,19.73
2022-11-17T14:56:24.586Z,21.63
2022-11-17T14:58:55.854Z,20.40
2022-11-17T15:01:28.311Z,17.73
2022-11-17T15:03:59.948Z,21.10
2022-11-17T15:06:28.643Z,20.00
2022-11-17T15:08:59.413Z,17.23
2022-11-17T15:11:29.265Z,20.00
2022-11-17T15:14:02.561Z,19.60
2022-11-17T15:16:30.811Z,18.03
2022-11-17T15:19:01.052Z,16.17
2022-11-17T15:21:29.468Z,17.10
2022-11-17T15:23:57.573Z,23.30
2022-11-17T15:26:25.691Z,21.37
2022-11-17T15:28:53.985Z,17.97
2022-11-17T15:31:22.118Z,19.90
2022-11-17T15:33:50.462Z,17.70
2022-11-17T15:36:21.760Z,17.67
2022-11-17T15:38:50.218Z,19.33
2022-11-17T15:41:18.447Z,20.40
2022-11-17T15:43:46.585Z,17.97
2022-11-17T15:46:16.827Z,17.10
2022-11-17T15:48:47.214Z,20.03
2022-11-17T15:51:17.552Z,15.70
2022-11-17T15:53:48.604Z,16.70
2022-11-17T15:56:18.898Z,15.77
2022-11-17T15:58:48.265Z,23.53
2022-11-17T16:01:26.006Z,17.53
2022-11-17T16:03:58.657Z,18.50
2022-11-17T16:06:27.317Z,19.13
2022-11-17T16:08:57.560Z,20.20
2022-11-17T16:11:27.063Z,19.03
2022-11-17T16:13:55.952Z,20.23
2022-11-17T16:16:25.336Z,19.00
2022-11-17T16:18:53.549Z,19.30
2022-11-17T16:21:21.788Z,20.43
2022-11-17T16:23:51.143Z,19.70
2022-11-17T16:26:21.579Z,19.43
2022-11-17T16:28:49.995Z,21.53
2022-11-17T16:31:19.985Z,18.53
2022-11-17T16:33:49.266Z,19.80
2022-11-17T16:36:18.047Z,21.13
2022-11-17T16:39:02.410Z,22.70
2022-11-17T16:41:33.975Z,20.40
2022-11-17T16:44:03.127Z,20.83
2022-11-17T16:46:32.611Z,19.93
2022-11-17T16:49:03.010Z,15.53
2022-11-17T16:51:31.638Z,21.13
2022-11-17T16:54:02.095Z,20.47
2022-11-17T16:56:33.447Z,19.37
2022-11-17T16:59:01.928Z,22.40
2022-11-17T17:01:32.398Z,20.00
2022-11-17T17:04:02.085Z,21.50
2022-11-17T17:06:30.772Z,22.00
2022-11-17T17:09:01.027Z,21.27
2022-11-17T17:11:31.775Z,21.63
2022-11-17T17:14:03.335Z,18.27
2022-11-17T17:16:32.953Z,24.13
2022-11-17T17:19:02.172Z,18.00
2022-11-17T17:21:31.244Z,20.40
2022-11-17T17:23:59.635Z,25.67
2022-11-17T17:26:29.595Z,21.03
2022-11-17T17:29:00.460Z,21.37
2022-11-17T17:31:34.483Z,20.50
2022-11-17T17:34:03.980Z,21.43
2022-11-17T17:36:32.500Z,20.17
2022-11-17T17:39:02.648Z,18.63
2022-11-17T17:41:32.392Z,20.10
2022-11-17T17:44:02.502Z,19.73
2022-11-17T17:46:36.167Z,18.40
2022-11-17T17:49:04.540Z,18.60
2022-11-17T17:51:32.767Z,17.03
2022-11-17T17:54:02.051Z,18.50
2022-11-17T17:56:30.933Z,16.80
2022-11-17T17:58:59.340Z,18.23
2022-11-17T18:01:29.656Z,17.27
2022-11-17T18:04:04.571Z,17.33
2022-11-17T18:06:36.784Z,17.30
2022-11-17T18:09:05.664Z,20.20
2022-11-17T18:11:35.570Z,15.80
2022-11-17T18:14:04.638Z,19.17
2022-11-17T18:16:34.200Z,17.63
2022-11-17T18:19:05.702Z,16.43
2022-11-17T18:21:34.194Z,16.67
2022-11-17T18:24:03.465Z,17.90
2022-11-17T18:26:33.194Z,17.43
2022-11-17T18:29:02.915Z,23.07
2022-11-17T18:31:33.098Z,18.10
2022-11-17T18:34:04.567Z,15.10
2022-11-17T18:36:33.599Z,18.40
2022-11-17T18:39:01.898Z,19.57
2022-11-17T18:41:32.141Z,17.67
2022-11-17T18:44:00.491Z,18.77
2022-11-17T18:46:30.082Z,17.00
2022-11-17T18:48:58.568Z,18.97
2022-11-17T18:51:29.782Z,21.70
2022-11-17T18:53:59.767Z,18.57
2022-11-17T18:56:30.760Z,18.90
2022-11-17T18:58:59.288Z,16.43
2022-11-17T19:01:29.286Z,17.50
2022-11-17T19:04:00.176Z,19.97
2022-11-17T19:06:30.564Z,19.70
2022-11-17T19:09:00.321Z,19.07
2022-11-17T19:11:30.683Z,18.87
2022-11-17T19:13:59.866Z,21.37
2022-11-17T19:16:27.990Z,19.90
2022-11-17T19:18:57.318Z,16.80
2022-11-17T19:21:27.155Z,19.50
2022-11-17T19:23:59.988Z,20.27
2022-11-17T19:26:29.917Z,23.37
2022-11-17T19:28:59.723Z,22.63
2022-11-17T19:31:28.170Z,19.90
2022-11-17T19:33:57.759Z,21.17
2022-11-17T19:36:29.295Z,20.63
2022-11-17T19:39:00.373Z,23.03
2022-11-17T19:41:30.551Z,15.53
2022-11-17T19:44:00.153Z,17.77
2022-11-17T19:46:29.578Z,23.23
2022-11-17T19:48:58.503Z,17.00
2022-11-17T19:51:29.189Z,17.60
2022-11-17T19:54:00.079Z,18.80
2022-11-17T19:56:28.488Z,18.90
2022-11-17T19:58:56.871Z,21.77
2022-11-17T20:01:26.872Z,18.47
2022-11-17T20:03:56.038Z,21.00
2022-11-17T20:06:27.172Z,18.93
2022-11-17T20:08:57.266Z,18.20
2022-11-17T20:11:28.976Z,19.53
2022-11-17T20:13:57.689Z,17.23
2022-11-17T20:16:27.310Z,21.63
2022-11-17T20:18:57.363Z,16.57
2022-11-17T20:21:25.847Z,16.50
2022-11-17T20:23:55.414Z,19.43
2022-11-17T20:26:27.001Z,17.00
2022-11-17T20:28:55.691Z,24.00
2022-11-17T20:31:25.608Z,19.93
2022-11-17T20:33:57.553Z,18.03
2022-11-17T20:36:25.923Z,16.50
2022-11-17T20:38:55.741Z,15.23
2022-11-17T20:41:25.389Z,16.53
2022-11-17T20:43:56.483Z,19.83
2022-11-17T20:46:25.675Z,15.80
2022-11-17T20:48:54.061Z,19.20
2022-11-17T20:51:23.729Z,18.60
2022-11-17T20:53:52.282Z,19.07
2022-11-17T20:56:21.235Z,17.67
2022-11-17T20:58:49.594Z,15.17
2022-11-17T21:01:21.454Z,18.53
2022-11-17T21:03:50.451Z,16.43
2022-11-17T21:06:19.613Z,16.97
2022-11-17T21:08:48.037Z,21.10
2022-11-17T21:11:32.311Z,16.43
2022-11-17T21:14:01.947Z,19.30
2022-11-17T21:16:31.534Z,19.00
2022-11-17T21:19:00.195Z,18.60
2022-11-17T21:21:28.334Z,17.83
2022-11-17T21:23:56.999Z,19.33
2022-11-17T21:26:25.536Z,22.97
2022-11-17T21:28:53.842Z,18.60
2022-11-17T21:31:24.462Z,18.00
2022-11-17T21:33:55.614Z,18.97
2022-11-17T21:36:25.153Z,22.13
2022-11-17T21:38:53.795Z,17.70
2022-11-17T21:41:23.569Z,22.47
2022-11-17T21:43:53.354Z,22.13
2022-11-17T21:46:23.818Z,23.43
2022-11-17T21:48:54.944Z,22.80
2022-11-17T21:51:25.081Z,23.83
2022-11-17T21:53:54.084Z,20.60
2022-11-17T21:56:25.593Z,20.33
2022-11-17T21:58:57.233Z,20.80
2022-11-17T22:01:25.834Z,23.30
2022-11-17T22:03:55.428Z,21.80
2022-11-17T22:06:24.941Z,24.20
2022-11-17T22:08:55.091Z,24.43
2022-11-17T22:11:36.575Z,21.10
2022-11-17T22:14:07.443Z,23.30
2022-11-17T22:16:36.122Z,22.43
2022-11-17T22:19:06.734Z,24.87
2022-11-17T22:21:36.318Z,24.33
2022-11-17T22:24:05.146Z,24.17
2022-11-17T22:26:35.764Z,23.60
2022-11-17T22:29:03.919Z,24.40
2022-11-17T22:31:32.552Z,23.00
2022-11-17T22:34:00.799Z,25.83
2022-11-17T22:36:30.333Z,25.40
2022-11-17T22:38:59.088Z,22.20
2022-11-17T22:41:27.477Z,20.93
2022-11-17T22:43:57.342Z,17.07
2022-11-17T22:46:27.211Z,23.83
2022-11-17T22:48:55.758Z,24.70
2022-11-17T22:51:39.135Z,21.00
2022-11-17T22:54:09.512Z,25.93
2022-11-17T22:56:39.183Z,21.37
2022-11-17T22:59:07.656Z,24.33
2022-11-17T23:01:35.889Z,19.43
2022-11-17T23:04:04.266Z,21.73
2022-11-17T23:06:32.540Z,22.57
2022-11-17T23:09:00.756Z,23.50
2022-11-17T23:11:37.074Z,21.37
2022-11-17T23:14:07.736Z,23.07
2022-11-17T23:16:36.687Z,24.80
2022-11-17T23:19:05.703Z,24.17
2022-11-17T23:21:33.933Z,22.57
2022-11-17T23:24:02.148Z,22.60
2022-11-17T23:26:31.614Z,25.90
2022-11-17T23:28:59.808Z,19.03
2022-11-17T23:31:28.363Z,19.93
2022-11-17T23:33:56.582Z,24.60
2022-11-17T23:36:25.118Z,20.90
2022-11-17T23:38:55.546Z,25.50
2022-11-17T23:41:23.698Z,20.47
2022-11-17T23:43:54.646Z,23.10
2022-11-17T23:46:25.560Z,25.63
2022-11-17T23:48:55.118Z,21.73
2022-11-17T23:51:24.711Z,25.53
2022-11-17T23:53:53.735Z,19.77
2022-11-17T23:56:22.005Z,26.27
2022-11-17T23:58:50.807Z,21.97
